Shelter Cove, California
Current Conditions -  °F | °C
As of 10:10 PM on Tuesday 21 Oct 2014 (Local Time) from KFOT Reporting Station
Clear Clear  
Wind Chill: 55°   Ceiling: Unl
Heat Index: 55°   Visibility: 10mi
Dew Point: 52°   Wind: 8mph
Humidity: 88%   Direction: 140°SE
Pressure: 30.05"   Gusts: NA
Location:  40.03°N, 124.07°W
Report Text: KFOT 220510Z AUTO 14007KT 10SM CLR 13/11 A3005 RMK AO1
Loading
Personal Weather Stations






























Interactive Weather Map New forecast layout! Learn more

10-Day Weather Forecast

Advertisements
Track Severe Weather on mobile